Time;durP1;ratioP1;P1;durP2;ratioP2;P2;SDS_P1;SDS_P2;PMS_P1;PMS_P2;Temp;Humidity;BMP_temperature;BMP_pressure;BME280_temperature;BME280_humidity;BME280_pressure;Samples;Min_cycle;Max_cycle;Signal;HPM_P1;HPM_P2
2021/01/23 00:01:35;;;;;;;5.95;4.20;;;;;;;21.56;34.46;94627.84;4971785;28;20037;-79
2021/01/23 00:04:00;;;;;;;6.47;4.28;;;;;;;21.55;34.55;94626.34;4973363;28;20050;-79
2021/01/23 00:06:26;;;;;;;5.47;3.88;;;;;;;21.54;34.40;94635.78;4973587;28;20512;-79
2021/01/23 00:08:51;;;;;;;5.90;4.13;;;;;;;21.52;34.59;94608.34;4972343;28;20178;-79
2021/01/23 00:11:17;;;;;;;6.43;4.13;;;;;;;21.54;34.43;94608.59;4973029;28;20022;-79
2021/01/23 00:13:42;;;;;;;5.50;4.00;;;;;;;21.49;34.51;94595.78;4975994;28;20533;-78
2021/01/23 00:16:08;;;;;;;5.82;4.10;;;;;;;21.45;34.47;94611.63;4978325;28;20034;-78
2021/01/23 00:18:33;;;;;;;5.82;4.10;;;;;;;21.41;34.76;94626.72;4997067;28;20050;-78
2021/01/23 00:20:59;;;;;;;5.90;4.03;;;;;;;21.33;34.49;94614.91;4997426;28;20073;-79
2021/01/23 00:23:24;;;;;;;6.00;4.00;;;;;;;21.42;34.48;94612.63;4998973;28;20022;-79
2021/01/23 00:25:50;;;;;;;5.75;4.25;;;;;;;21.37;34.81;94599.81;4992209;28;20034;-79
2021/01/23 00:28:15;;;;;;;5.10;4.15;;;;;;;21.38;34.69;94612.16;4992600;28;20030;-79
2021/01/23 00:30:41;;;;;;;6.00;4.40;;;;;;;21.38;34.81;94601.28;4992404;28;20113;-79
2021/01/23 00:33:06;;;;;;;6.93;4.03;;;;;;;21.39;34.87;94608.19;4992737;28;20026;-79
2021/01/23 00:35:32;;;;;;;4.80;3.67;;;;;;;21.14;34.51;94595.78;4993645;28;20446;-79
2021/01/23 00:37:57;;;;;;;5.70;4.03;;;;;;;21.37;34.65;94616.09;4991016;28;20531;-79
2021/01/23 00:40:24;;;;;;;6.30;4.30;;;;;;;21.09;34.52;94577.56;4987291;28;20161;-79
2021/01/23 00:42:50;;;;;;;5.28;3.95;;;;;;;21.34;34.79;94603.53;4956496;28;20035;-80
2021/01/23 00:45:15;;;;;;;6.55;4.25;;;;;;;21.28;34.84;94618.41;4972854;28;20105;-80
2021/01/23 00:47:41;;;;;;;5.97;3.92;;;;;;;21.30;34.67;94632.97;4973225;28;20496;-79
2021/01/23 00:50:07;;;;;;;5.95;3.80;;;;;;;21.31;34.71;94623.56;4972507;28;20050;-79
2021/01/23 00:52:32;;;;;;;6.25;3.88;;;;;;;21.11;35.01;94588.66;4989010;28;20080;-79
2021/01/23 00:54:58;;;;;;;5.60;3.90;;;;;;;21.17;34.91;94592.06;4991961;28;20479;-79
2021/01/23 00:57:23;;;;;;;5.68;3.95;;;;;;;21.20;34.96;94607.34;4993659;28;20389;-78
2021/01/23 00:59:49;;;;;;;4.95;3.53;;;;;;;21.18;34.82;94582.69;4992516;28;20030;-79
2021/01/23 01:02:14;;;;;;;5.10;3.45;;;;;;;21.03;34.99;94590.44;4992220;28;20022;-80
2021/01/23 01:04:39;;;;;;;6.50;3.92;;;;;;;21.15;34.89;94599.97;4991359;28;20030;-80
2021/01/23 01:07:05;;;;;;;5.13;3.95;;;;;;;21.16;35.16;94601.44;4996573;28;20031;-81
2021/01/23 01:09:30;;;;;;;5.40;3.55;;;;;;;21.10;35.03;94598.03;4998653;28;20052;-81
2021/01/23 01:11:56;;;;;;;4.72;3.53;;;;;;;21.11;35.00;94599.50;4995821;28;20034;-79
2021/01/23 01:14:22;;;;;;;5.65;3.75;;;;;;;21.07;34.95;94587.44;4996012;28;20026;-78
2021/01/23 01:16:47;;;;;;;5.57;3.92;;;;;;;21.07;35.14;94593.59;4995982;28;20125;-79
2021/01/23 01:19:13;;;;;;;5.60;3.67;;;;;;;21.07;35.09;94607.19;4994644;28;20356;-79
2021/01/23 01:21:38;;;;;;;5.20;3.50;;;;;;;21.04;34.89;94583.75;4995956;28;20033;-80
2021/01/23 01:24:04;;;;;;;5.45;3.60;;;;;;;21.02;34.92;94575.38;4995414;28;20072;-80
2021/01/23 01:26:30;;;;;;;7.00;4.15;;;;;;;21.03;35.05;94576.88;4995549;28;20027;-78
2021/01/23 01:28:55;;;;;;;4.60;3.63;;;;;;;20.85;35.07;94576.00;4994922;28;20054;-79
2021/01/23 01:31:21;;;;;;;5.47;4.00;;;;;;;20.99;35.26;94576.38;4994684;28;20018;-79
2021/01/23 01:33:47;;;;;;;5.38;3.63;;;;;;;20.99;34.99;94573.69;4994847;28;20026;-80
2021/01/23 01:36:12;;;;;;;5.78;4.10;;;;;;;20.81;35.13;94553.84;4995477;28;20033;-80
2021/01/23 01:38:38;;;;;;;4.63;3.58;;;;;;;20.96;35.02;94579.38;4995052;28;20038;-79
2021/01/23 01:41:03;;;;;;;5.20;3.58;;;;;;;20.94;35.14;94559.41;4993852;28;20174;-79
2021/01/23 01:43:29;;;;;;;5.03;3.50;;;;;;;20.86;35.13;94547.63;4995301;28;20710;-80
2021/01/23 01:45:55;;;;;;;4.53;3.40;;;;;;;20.91;35.58;94557.69;4994676;28;20026;-80
2021/01/23 01:48:20;;;;;;;5.53;3.45;;;;;;;20.78;35.33;94527.69;4995374;28;20088;-80
2021/01/23 01:50:45;;;;;;;4.75;3.40;;;;;;;20.92;35.14;94565.34;4995359;28;20050;-79
2021/01/23 01:53:11;;;;;;;4.57;3.20;;;;;;;20.88;34.96;94569.56;4997322;28;20030;-79
2021/01/23 01:55:36;;;;;;;5.18;3.70;;;;;;;20.88;35.18;94575.75;4994896;28;20034;-79
2021/01/23 01:58:02;;;;;;;5.20;3.63;;;;;;;20.88;35.10;94580.41;4993953;28;20026;-79
2021/01/23 02:00:28;;;;;;;5.65;3.70;;;;;;;20.74;35.30;94548.94;4994805;28;20026;-79
2021/01/23 02:03:18;;;;;;;5.10;3.30;;;;;;;20.85;35.35;94565.13;4993669;28;20026;-80
2021/01/23 02:05:53;;;;;;;5.43;3.50;;;;;;;20.85;35.17;94554.28;4994582;28;20037;-80
2021/01/23 02:08:53;;;;;;;4.63;3.40;;;;;;;20.81;35.34;94542.97;4977932;28;20492;-80
2021/01/23 02:11:36;;;;;;;4.72;3.72;;;;;;;20.83;35.36;94524.22;4985404;28;20045;-80
2021/01/23 02:14:43;;;;;;;4.35;3.10;;;;;;;20.81;35.28;94542.97;4993237;28;20038;-80
2021/01/23 02:17:10;;;;;;;5.80;3.65;;;;;;;20.82;35.23;94555.28;4993478;28;20121;-79
2021/01/23 02:20:11;;;;;;;4.85;3.28;;;;;;;20.64;35.37;94523.31;4993514;28;20033;-79
2021/01/23 02:22:55;;;;;;;5.40;3.22;;;;;;;20.67;35.30;94538.56;4993530;28;20030;-80
2021/01/23 02:25:21;;;;;;;4.75;3.50;;;;;;;20.76;35.56;94546.44;4995130;28;20041;-80
2021/01/23 02:28:10;;;;;;;4.45;3.10;;;;;;;20.76;35.17;94519.31;4993300;28;20454;-81
2021/01/23 02:31:00;;;;;;;4.60;3.45;;;;;;;20.73;35.56;94512.94;4994120;28;20033;-78
2021/01/23 02:33:26;;;;;;;4.60;3.20;;;;;;;20.75;35.26;94517.84;4992850;28;20117;-79
2021/01/23 02:35:51;;;;;;;4.85;3.22;;;;;;;20.55;35.54;94488.34;4993824;28;20277;-79
2021/01/23 02:38:16;;;;;;;5.30;3.40;;;;;;;20.73;35.31;94520.31;4976846;28;20036;-77
2021/01/23 02:40:42;;;;;;;4.50;3.00;;;;;;;20.59;35.42;94483.41;4993140;28;20027;-79
2021/01/23 02:43:07;;;;;;;4.80;3.13;;;;;;;20.73;35.35;94504.03;4992933;28;20026;-80
2021/01/23 02:45:33;;;;;;;4.63;3.28;;;;;;;20.70;35.49;94510.47;4992908;28;20104;-79
2021/01/23 02:47:58;;;;;;;4.75;3.00;;;;;;;20.71;35.25;94517.38;4993883;28;20030;-79
2021/01/23 02:50:24;;;;;;;4.50;3.28;;;;;;;20.72;35.19;94516.88;4992280;28;20027;-79
2021/01/23 02:53:08;;;;;;;5.63;3.30;;;;;;;20.70;35.57;94510.47;4993977;28;20069;-79
2021/01/23 02:55:34;;;;;;;5.13;3.00;;;;;;;20.70;35.35;94540.31;4993514;28;20108;-80
2021/01/23 02:58:04;;;;;;;4.45;3.00;;;;;;;20.71;35.03;94528.22;4993573;28;20041;-79
2021/01/23 03:00:30;;;;;;;5.13;4.00;;;;;;;20.63;35.39;94521.84;4993662;28;20080;-79
2021/01/23 03:02:56;;;;;;;3.92;2.80;;;;;;;20.69;35.54;94536.16;4992502;28;20034;-79
2021/01/23 03:05:25;;;;;;;4.63;2.90;;;;;;;20.67;35.39;94525.00;4992558;28;20030;-79
2021/01/23 03:07:54;;;;;;;5.03;3.20;;;;;;;20.62;35.02;94498.66;4993386;28;20030;-79
2021/01/23 03:10:35;;;;;;;4.88;3.55;;;;;;;20.62;35.33;94487.81;4992158;28;20053;-79
2021/01/23 03:13:01;;;;;;;4.28;3.13;;;;;;;20.64;35.51;94471.75;4992592;28;20129;-79
2021/01/23 03:15:26;;;;;;;4.13;2.83;;;;;;;20.63;35.36;94490.03;4993861;28;20046;-79
2021/01/23 03:17:52;;;;;;;4.65;3.22;;;;;;;20.61;35.24;94475.47;4992004;28;20097;-79
2021/01/23 03:20:17;;;;;;;3.97;2.88;;;;;;;20.61;35.42;94467.34;4992469;28;20081;-79
2021/01/23 03:22:43;;;;;;;5.15;3.50;;;;;;;20.57;35.55;94486.63;4993196;28;20034;-78
2021/01/23 03:25:09;;;;;;;4.45;3.00;;;;;;;20.62;35.49;94509.53;4993923;28;20034;-80
2021/01/23 03:27:34;;;;;;;5.55;3.00;;;;;;;20.61;35.63;94497.19;4992829;28;20073;-79
2021/01/23 03:30:00;;;;;;;3.65;2.70;;;;;;;20.58;35.93;94482.66;4993541;28;20484;-79
2021/01/23 03:32:25;;;;;;;4.28;2.90;;;;;;;20.26;35.48;94445.63;4993344;28;20480;-79
2021/01/23 03:34:51;;;;;;;4.88;2.72;;;;;;;20.60;35.72;94490.31;4991291;28;20030;-80
2021/01/23 03:37:16;;;;;;;5.40;3.13;;;;;;;20.61;35.31;94480.91;4995741;28;20033;-80
2021/01/23 03:39:42;;;;;;;5.28;3.30;;;;;;;20.60;35.65;94484.88;4993119;28;20022;-80
2021/01/23 03:42:07;;;;;;;4.25;2.90;;;;;;;20.57;35.33;94472.31;4993167;28;20030;-79
2021/01/23 03:44:32;;;;;;;4.90;2.95;;;;;;;20.47;35.52;94465.72;4993237;28;20030;-79
2021/01/23 03:46:58;;;;;;;4.63;3.00;;;;;;;20.56;35.34;94468.13;4992402;28;20105;-79
2021/01/23 03:49:23;;;;;;;4.57;2.95;;;;;;;20.59;35.45;94480.69;4994508;28;20517;-79
2021/01/23 03:51:49;;;;;;;5.03;3.03;;;;;;;20.70;35.48;94469.78;4994833;28;20061;-79
2021/01/23 03:54:14;;;;;;;4.45;3.00;;;;;;;20.77;35.43;94471.97;4993186;28;20027;-79
2021/01/23 03:56:40;;;;;;;3.38;2.53;;;;;;;20.88;34.90;94482.72;4992869;28;20065;-79
2021/01/23 03:59:05;;;;;;;4.20;2.55;;;;;;;20.96;34.96;94467.38;4992859;28;20026;-80
2021/01/23 04:01:31;;;;;;;4.30;2.72;;;;;;;21.01;34.86;94476.19;4993211;28;20034;-79
2021/01/23 04:03:56;;;;;;;4.75;2.88;;;;;;;21.01;34.99;94470.03;4992585;28;20022;-80
2021/01/23 04:06:22;;;;;;;4.93;2.88;;;;;;;21.08;34.96;94467.50;4992896;28;20022;-79
2021/01/23 04:08:48;;;;;;;3.95;3.00;;;;;;;21.10;35.09;94462.28;4992992;28;20022;-79
2021/01/23 04:11:13;;;;;;;4.50;3.00;;;;;;;21.11;34.88;94482.78;4992599;28;20022;-79
2021/01/23 04:13:38;;;;;;;4.53;2.90;;;;;;;21.14;34.93;94473.59;4992822;28;20033;-79
2021/01/23 04:16:04;;;;;;;4.93;2.92;;;;;;;21.16;34.79;94454.81;4992503;28;20110;-80
2021/01/23 04:18:30;;;;;;;4.07;2.55;;;;;;;21.17;34.78;94475.31;4992620;28;20529;-79
2021/01/23 04:20:55;;;;;;;3.58;2.42;;;;;;;21.16;34.82;94492.84;4992572;28;20034;-80
2021/01/23 04:23:21;;;;;;;3.95;2.70;;;;;;;21.20;34.92;94493.31;4992330;28;20113;-79
2021/01/23 04:25:46;;;;;;;4.80;2.95;;;;;;;21.23;34.86;94492.28;4992451;28;20050;-80
2021/01/23 04:28:14;;;;;;;3.50;2.75;;;;;;;21.18;34.74;94474.06;4992568;28;20499;-79
2021/01/23 04:30:41;;;;;;;3.40;2.55;;;;;;;21.17;34.84;94467.16;4992684;28;20041;-79
2021/01/23 04:33:07;;;;;;;3.95;2.60;;;;;;;21.28;34.77;94472.47;4991400;28;20533;-80
2021/01/23 04:35:32;;;;;;;3.92;2.55;;;;;;;21.31;34.77;94476.19;4992291;28;20027;-79
2021/01/23 04:37:58;;;;;;;3.88;2.70;;;;;;;21.30;34.67;94475.44;4992645;28;20050;-79
2021/01/23 04:40:23;;;;;;;3.90;2.63;;;;;;;21.35;34.40;94476.63;4991107;28;20026;-80
2021/01/23 04:42:48;;;;;;;3.95;2.70;;;;;;;21.32;34.25;94467.53;4991028;28;20076;-80
2021/01/23 04:45:14;;;;;;;3.50;2.35;;;;;;;21.37;34.49;94471.44;4991141;28;20023;-80
2021/01/23 04:47:40;;;;;;;3.60;2.33;;;;;;;21.39;34.64;94477.84;4992218;28;20026;-80
2021/01/23 04:50:07;;;;;;;3.55;2.60;;;;;;;21.38;34.49;94470.91;4991565;28;20054;-79
2021/01/23 04:52:40;;;;;;;3.50;2.60;;;;;;;21.39;34.51;94461.53;4990396;28;20042;-80
2021/01/23 04:55:07;;;;;;;4.38;2.47;;;;;;;21.42;34.59;94476.81;4995982;28;20033;-81
2021/01/23 04:57:32;;;;;;;3.63;2.53;;;;;;;21.43;34.41;94489.13;4991789;28;20048;-80
2021/01/23 04:59:58;;;;;;;3.67;2.97;;;;;;;21.43;34.38;94472.84;4991840;28;20519;-79
2021/01/23 05:02:23;;;;;;;3.33;2.40;;;;;;;21.42;34.57;94460.53;4992059;28;20034;-80
2021/01/23 05:05:00;;;;;;;3.28;2.20;;;;;;;21.43;34.40;94461.97;4991875;28;20026;-80
2021/01/23 05:07:39;;;;;;;3.13;2.40;;;;;;;21.48;34.58;94447.66;4990695;28;20105;-80
2021/01/23 05:10:12;;;;;;;3.33;2.50;;;;;;;21.47;34.54;94452.31;4990595;28;20046;-80
2021/01/23 05:12:42;;;;;;;3.35;2.25;;;;;;;21.50;34.41;94464.16;4991566;28;20026;-80
2021/01/23 05:15:10;;;;;;;3.25;2.17;;;;;;;21.51;34.40;94452.06;4995027;28;20032;-80
2021/01/23 05:18:06;;;;;;;3.17;2.30;;;;;;;21.52;34.33;94431.78;4992621;28;20121;-80
2021/01/23 05:20:50;;;;;;;3.13;2.45;;;;;;;21.40;34.42;94430.41;4987422;28;20047;-80
2021/01/23 05:23:22;;;;;;;2.92;1.98;;;;;;;21.54;34.38;94437.44;4990456;28;20041;-81
2021/01/23 05:25:58;;;;;;;3.42;2.10;;;;;;;21.55;34.30;94436.94;4991825;28;20184;-80
2021/01/23 05:28:31;;;;;;;4.55;2.25;;;;;;;21.57;34.42;94444.59;4990008;28;20500;-80
2021/01/23 05:30:57;;;;;;;3.17;2.15;;;;;;;21.56;34.48;94443.81;4991653;28;20503;-79
2021/01/23 05:33:24;;;;;;;3.15;2.28;;;;;;;21.54;34.27;94434.75;4990641;28;20064;-78
2021/01/23 05:36:06;;;;;;;3.78;2.20;;;;;;;21.56;34.46;94437.66;4990470;28;20132;-79
2021/01/23 05:38:32;;;;;;;3.28;2.28;;;;;;;21.57;34.42;94434.44;4980440;28;20500;-79
2021/01/23 05:41:18;;;;;;;3.92;2.38;;;;;;;21.58;34.50;94429.72;4972225;28;20092;-80
2021/01/23 05:43:44;;;;;;;3.85;2.42;;;;;;;21.59;34.30;94425.78;4971792;28;20534;-79
2021/01/23 05:46:15;;;;;;;4.07;2.50;;;;;;;21.58;34.53;94414.19;4971126;28;20416;-79
2021/01/23 05:48:43;;;;;;;3.05;2.10;;;;;;;21.60;34.38;94410.97;4974082;28;20050;-78
2021/01/23 05:51:08;;;;;;;2.83;2.10;;;;;;;21.60;34.36;94391.94;4973736;28;20417;-79
2021/01/23 05:53:34;;;;;;;3.10;2.10;;;;;;;21.62;34.33;94392.16;4975865;28;20041;-78
2021/01/23 05:56:00;;;;;;;3.47;2.30;;;;;;;21.63;34.24;94396.34;4975686;28;20045;-81
2021/01/23 05:58:29;;;;;;;4.50;2.50;;;;;;;21.62;34.36;94397.59;4974306;28;20035;-78
2021/01/23 06:00:54;;;;;;;3.08;2.05;;;;;;;21.64;34.38;94406.72;4974946;28;20027;-79
2021/01/23 06:03:20;;;;;;;3.90;2.60;;;;;;;21.63;34.11;94388.19;4974863;28;20101;-79
2021/01/23 06:05:45;;;;;;;3.47;2.30;;;;;;;21.63;34.11;94391.66;4975563;28;20039;-79
2021/01/23 06:08:11;;;;;;;2.58;2.20;;;;;;;21.66;34.26;94392.63;4958402;28;20027;-80
2021/01/23 06:10:37;;;;;;;3.47;2.13;;;;;;;21.65;34.21;94380.25;4975951;28;20411;-79
2021/01/23 06:13:03;;;;;;;3.55;2.00;;;;;;;21.68;34.19;94379.25;4975287;28;20023;-80
2021/01/23 06:15:32;;;;;;;3.10;2.28;;;;;;;21.69;34.18;94386.16;4982382;28;20046;-80
2021/01/23 06:17:58;;;;;;;2.78;1.92;;;;;;;21.59;34.25;94377.59;4997892;28;20030;-81
2021/01/23 06:20:41;;;;;;;3.30;2.17;;;;;;;21.69;34.22;94369.84;4994851;28;20101;-80
2021/01/23 06:23:07;;;;;;;3.13;2.10;;;;;;;21.69;34.13;94364.41;4995057;28;20400;-80
2021/01/23 06:25:56;;;;;;;3.35;2.25;;;;;;;21.71;34.18;94378.22;4994957;28;20037;-80
2021/01/23 06:28:22;;;;;;;3.67;2.47;;;;;;;21.71;34.22;94399.94;4986657;28;20108;-80
2021/01/23 06:30:50;;;;;;;3.67;2.40;;;;;;;21.71;34.13;94408.09;4975006;28;20054;-80
2021/01/23 06:33:21;;;;;;;3.55;2.40;;;;;;;21.73;34.27;94375.72;4973389;28;20027;-79
2021/01/23 06:36:07;;;;;;;3.40;1.90;;;;;;;21.75;34.14;94354.19;4975442;28;20526;-79
2021/01/23 06:38:33;;;;;;;3.15;2.20;;;;;;;21.72;33.77;94385.84;4976216;28;20563;-80
2021/01/23 06:41:29;;;;;;;3.40;2.25;;;;;;;21.73;34.05;94386.56;4975010;28;20093;-81
2021/01/23 06:44:08;;;;;;;3.90;2.60;;;;;;;21.61;34.04;94364.25;4976474;28;20045;-79
2021/01/23 06:46:34;;;;;;;3.85;2.28;;;;;;;21.48;34.26;94341.72;4967558;28;20062;-77
2021/01/23 06:49:03;;;;;;;3.28;2.25;;;;;;;21.79;34.17;94389.97;4973754;28;20046;-80
2021/01/23 06:51:29;;;;;;;3.08;2.17;;;;;;;21.79;34.21;94390.69;4973771;28;20043;-80
2021/01/23 06:54:16;;;;;;;2.63;2.10;;;;;;;21.83;34.21;94374.09;4994428;28;20431;-78
2021/01/23 06:56:54;;;;;;;3.85;2.63;;;;;;;21.71;34.30;94389.09;4994160;28;20034;-78
2021/01/23 06:59:27;;;;;;;3.95;2.42;;;;;;;21.74;34.51;94394.22;4981111;28;20035;-79
2021/01/23 07:02:05;;;;;;;4.47;2.25;;;;;;;21.91;34.54;94423.91;4973100;28;20082;-78
2021/01/23 07:04:33;;;;;;;4.15;2.35;;;;;;;21.96;34.69;94402.81;4975974;28;20042;-79
2021/01/23 07:06:58;;;;;;;4.35;2.30;;;;;;;22.07;34.73;94399.22;4974100;28;20014;-78
2021/01/23 07:09:46;;;;;;;3.88;2.15;;;;;;;22.15;34.72;94411.72;4974939;28;20037;-82
2021/01/23 07:12:12;;;;;;;3.60;2.33;;;;;;;22.08;34.87;94387.84;4974673;28;20356;-75
2021/01/23 07:14:38;;;;;;;3.08;2.03;;;;;;;22.30;34.75;94412.03;4974254;28;20540;-78
2021/01/23 07:17:03;;;;;;;3.40;2.05;;;;;;;22.39;34.63;94403.50;4937775;28;20105;-76
2021/01/23 07:19:29;;;;;;;3.40;2.35;;;;;;;22.44;34.67;94416.28;4980384;28;20023;-76
2021/01/23 07:21:55;;;;;;;3.83;2.20;;;;;;;22.55;34.62;94432.44;4972550;28;20540;-76
2021/01/23 07:24:20;;;;;;;3.42;2.17;;;;;;;22.58;34.83;94398.75;4970056;28;20030;-79
2021/01/23 07:26:46;;;;;;;3.58;2.25;;;;;;;22.66;34.70;94377.81;4968172;28;20030;-75
2021/01/23 07:29:11;;;;;;;3.33;2.10;;;;;;;22.74;34.56;94411.38;4969513;28;20428;-76
2021/01/23 07:31:37;;;;;;;3.85;2.30;;;;;;;22.73;34.56;94388.09;4971748;28;20034;-76
2021/01/23 07:34:10;;;;;;;3.13;2.17;;;;;;;22.93;34.20;94397.19;4974267;28;20513;-84
2021/01/23 07:36:40;;;;;;;4.05;2.53;;;;;;;23.01;34.06;94387.16;4970319;28;20460;-79
2021/01/23 07:39:08;;;;;;;;;;;;;;;23.08;33.92;94391.25;4971609;28;20098;-78
2021/01/23 07:41:34;;;;;;;2.75;2.00;;;;;;;23.19;33.68;94391.06;4973093;28;19918;-82
2021/01/23 07:44:00;;;;;;;4.22;2.30;;;;;;;23.28;33.81;94380.47;4973632;28;20034;-89
2021/01/23 07:46:32;;;;;;;3.35;2.20;;;;;;;23.34;33.17;94392.00;4975721;28;20031;-79
2021/01/23 07:48:58;;;;;;;3.15;2.15;;;;;;;23.39;33.53;94396.59;4970439;28;20034;-87
2021/01/23 07:51:25;;;;;;;2.88;2.10;;;;;;;23.44;33.51;94373.97;4974390;28;20115;-86
2021/01/23 07:54:10;;;;;;;3.63;2.10;;;;;;;23.53;32.96;94377.00;4973033;28;20034;-83
2021/01/23 07:56:36;;;;;;;3.35;2.08;;;;;;;23.60;32.84;94375.63;4964792;28;20402;-80
2021/01/23 07:59:02;;;;;;;3.65;2.03;;;;;;;23.68;32.89;94376.50;4980592;28;20038;-78
2021/01/23 08:01:27;;;;;;;3.15;2.30;;;;;;;23.73;32.89;94378.38;4979232;28;20027;-76
2021/01/23 08:03:53;;;;;;;3.78;2.40;;;;;;;23.82;32.92;94386.13;4972464;28;20389;-77
2021/01/23 08:06:24;;;;;;;4.45;2.30;;;;;;;23.82;32.53;94354.13;4973287;28;20030;-77
2021/01/23 08:08:49;;;;;;;2.72;1.98;;;;;;;23.86;32.41;94353.84;4972749;28;20030;-77
2021/01/23 08:11:35;;;;;;;3.25;2.35;;;;;;;23.91;32.29;94395.31;4973682;28;20169;-77
2021/01/23 08:14:14;;;;;;;3.53;2.25;;;;;;;23.96;32.75;94359.03;4972963;28;20097;-76
2021/01/23 08:16:56;;;;;;;5.05;2.25;;;;;;;23.97;32.29;94344.13;4972680;28;20030;-79
2021/01/23 08:19:22;;;;;;;6.45;2.33;;;;;;;24.04;32.17;94351.66;4955592;28;20106;-77
2021/01/23 08:22:08;;;;;;;6.18;2.20;;;;;;;24.09;31.87;94378.09;4971596;28;20354;-77
2021/01/23 08:24:34;;;;;;;4.95;2.40;;;;;;;24.18;32.27;94385.09;4975380;28;20397;-78
2021/01/23 08:27:18;;;;;;;5.03;2.30;;;;;;;24.07;31.97;94347.88;4973055;28;20101;-78
2021/01/23 08:29:48;;;;;;;3.38;2.17;;;;;;;24.21;32.14;94368.38;4960598;28;20022;-77
2021/01/23 08:32:13;;;;;;;3.00;2.28;;;;;;;24.19;31.80;94392.75;4973323;28;20105;-77
2021/01/23 08:34:39;;;;;;;5.20;2.50;;;;;;;24.24;31.72;94367.34;4972757;28;20034;-78
2021/01/23 08:37:05;;;;;;;4.95;2.88;;;;;;;24.22;31.79;94369.88;4972117;28;20034;-77
2021/01/23 08:39:45;;;;;;;3.22;2.20;;;;;;;24.15;31.93;94362.31;4967934;28;20030;-76
2021/01/23 08:42:11;;;;;;;3.92;2.20;;;;;;;24.27;31.90;94377.19;4966674;28;20061;-78
2021/01/23 08:44:37;;;;;;;3.47;2.10;;;;;;;24.32;31.41;94384.53;4973081;28;20042;-78
2021/01/23 08:47:03;;;;;;;3.50;2.70;;;;;;;24.35;31.63;94386.22;4970988;28;20122;-74
2021/01/23 08:49:30;;;;;;;10.90;2.90;;;;;;;24.41;31.47;94381.38;4972563;28;20047;-79
2021/01/23 08:51:55;;;;;;;7.43;2.65;;;;;;;24.36;31.60;94357.66;4976405;28;20507;-78
2021/01/23 08:54:21;;;;;;;6.32;2.30;;;;;;;24.26;31.46;94370.28;4991502;28;20048;-80
2021/01/23 08:56:47;;;;;;;4.55;2.53;;;;;;;24.28;32.15;94361.56;4978545;28;20027;-78
2021/01/23 08:59:12;;;;;;;4.45;2.30;;;;;;;24.33;32.53;94363.47;4969216;28;20042;-79
2021/01/23 09:01:38;;;;;;;7.55;2.47;;;;;;;24.19;32.29;94345.66;4967914;28;20597;-76
2021/01/23 09:04:04;;;;;;;5.25;2.67;;;;;;;24.34;32.33;94327.44;4970348;28;20084;-77
2021/01/23 09:06:29;;;;;;;5.60;2.63;;;;;;;24.31;31.52;94344.84;4972789;28;20042;-77
2021/01/23 09:08:55;;;;;;;6.75;2.90;;;;;;;24.07;31.88;94309.69;4975379;28;20030;-77
2021/01/23 09:11:20;;;;;;;5.28;2.65;;;;;;;24.24;31.71;94361.88;4982798;28;20118;-77
2021/01/23 09:13:45;;;;;;;5.70;2.75;;;;;;;24.13;31.65;94355.94;4972158;28;20038;-76
2021/01/23 09:16:11;;;;;;;4.13;2.60;;;;;;;24.06;32.14;94362.78;4973322;28;20039;-76
2021/01/23 09:18:36;;;;;;;4.15;2.40;;;;;;;23.89;31.96;94337.88;4984078;28;20030;-77
2021/01/23 09:21:02;;;;;;;5.40;2.63;;;;;;;23.94;32.09;94350.63;4970839;28;20027;-76
2021/01/23 09:23:28;;;;;;;5.53;2.70;;;;;;;23.93;32.26;94360.09;4973058;28;20097;-77
2021/01/23 09:25:53;;;;;;;3.88;2.58;;;;;;;23.79;32.19;94349.00;4975719;28;20179;-77
2021/01/23 09:28:19;;;;;;;5.13;2.78;;;;;;;23.79;32.11;94344.28;4980091;28;20026;-77
2021/01/23 09:30:44;;;;;;;4.78;2.67;;;;;;;23.71;32.09;94332.56;4980243;28;20027;-77
2021/01/23 09:33:10;;;;;;;5.47;2.92;;;;;;;23.59;32.13;94325.13;4980240;28;20031;-77
2021/01/23 09:35:35;;;;;;;6.03;3.08;;;;;;;23.56;32.08;94343.25;4979222;28;20030;-77
2021/01/23 09:38:01;;;;;;;5.53;3.13;;;;;;;23.51;32.29;94341.38;4988561;28;20023;-77
2021/01/23 09:40:26;;;;;;;5.22;2.90;;;;;;;23.47;32.36;94321.88;4974487;28;20058;-77
2021/01/23 09:42:52;;;;;;;5.68;3.00;;;;;;;23.24;32.52;94311.94;4975707;28;20777;-77
2021/01/23 09:45:17;;;;;;;4.00;2.80;;;;;;;23.31;32.49;94327.66;4975976;28;20030;-77
2021/01/23 09:47:43;;;;;;;3.88;2.85;;;;;;;23.30;32.56;94317.28;4975162;28;20026;-77
2021/01/23 09:50:08;;;;;;;6.80;3.40;;;;;;;23.20;32.42;94316.97;4975423;28;20027;-77
2021/01/23 09:52:34;;;;;;;4.53;3.03;;;;;;;23.16;32.91;94305.66;4984190;28;20057;-77
2021/01/23 09:54:59;;;;;;;5.22;3.25;;;;;;;23.07;32.76;94308.81;4994744;28;20030;-76
2021/01/23 09:57:25;;;;;;;4.85;3.30;;;;;;;22.91;32.77;94296.22;4995039;28;20022;-77
2021/01/23 09:59:50;;;;;;;5.63;3.30;;;;;;;22.79;32.81;94266.25;4995341;28;20033;-77
2021/01/23 10:02:16;;;;;;;6.90;3.72;;;;;;;22.90;32.75;94294.75;4994446;28;20038;-77
2021/01/23 10:04:41;;;;;;;5.20;3.17;;;;;;;22.86;32.98;94309.19;4995023;28;20403;-77
2021/01/23 10:07:07;;;;;;;4.97;3.25;;;;;;;22.76;33.22;94306.13;4994562;28;20424;-77
2021/01/23 10:09:32;;;;;;;5.25;3.22;;;;;;;22.68;33.06;94293.69;4994881;28;20033;-77
2021/01/23 10:11:58;;;;;;;4.93;3.53;;;;;;;22.68;33.22;94299.13;4993408;28;20037;-77
2021/01/23 10:14:23;;;;;;;4.15;3.05;;;;;;;22.66;33.14;94285.28;4993693;28;20049;-76
2021/01/23 10:16:49;;;;;;;5.28;3.22;;;;;;;22.55;33.25;94269.88;4993934;28;20422;-76
2021/01/23 10:19:15;;;;;;;5.22;3.45;;;;;;;22.55;33.29;94285.50;4993742;28;20034;-76
2021/01/23 10:21:40;;;;;;;5.95;3.40;;;;;;;22.46;33.36;94261.41;4982149;28;20031;-75
2021/01/23 10:24:06;;;;;;;5.40;3.25;;;;;;;22.44;33.42;94269.38;4968897;28;20035;-74
2021/01/23 10:26:32;;;;;;;4.43;3.33;;;;;;;22.43;33.21;94259.72;4966298;28;20023;-75
2021/01/23 10:28:58;;;;;;;4.63;3.33;;;;;;;22.49;33.32;94265.81;4975281;28;20539;-76
2021/01/23 10:31:24;;;;;;;4.43;3.35;;;;;;;22.40;33.43;94230.84;4971754;28;20042;-76
2021/01/23 10:33:49;;;;;;;5.47;3.25;;;;;;;22.37;33.62;94237.34;4973814;28;20023;-76
2021/01/23 10:36:15;;;;;;;5.47;3.83;;;;;;;22.40;33.76;94219.97;4974032;28;20515;-75
2021/01/23 10:38:40;;;;;;;11.45;3.60;;;;;;;22.39;33.92;94223.97;4972385;28;20493;-76
2021/01/23 10:41:06;;;;;;;12.27;3.70;;;;;;;22.36;34.69;94192.34;4973862;28;20038;-78
2021/01/23 10:43:32;;;;;;;7.35;3.40;;;;;;;22.38;34.99;94206.16;4974472;28;20038;-82
2021/01/23 10:45:58;;;;;;;10.80;3.47;;;;;;;22.40;35.27;94198.19;4973589;28;20031;-76
2021/01/23 10:48:23;;;;;;;10.02;3.83;;;;;;;22.19;35.39;94164.69;4974764;28;20088;-81
2021/01/23 10:50:49;;;;;;;6.88;3.70;;;;;;;22.20;35.83;94163.44;4958085;28;20489;-79
2021/01/23 10:53:15;;;;;;;7.50;4.05;;;;;;;22.39;35.15;94191.31;4975852;28;20134;-85
2021/01/23 10:55:41;;;;;;;8.88;3.60;;;;;;;22.34;35.11;94185.97;4974597;28;21037;-79
2021/01/23 10:58:06;;;;;;;8.20;3.55;;;;;;;22.33;35.27;94171.66;4975317;28;20102;-78
2021/01/23 11:00:32;;;;;;;7.50;3.28;;;;;;;22.30;35.05;94183.56;4974743;28;20427;-76
2021/01/23 11:02:57;;;;;;;7.72;3.58;;;;;;;22.31;35.31;94179.56;4974073;28;20592;-78
2021/01/23 11:05:22;;;;;;;8.57;3.72;;;;;;;22.24;35.27;94158.47;4974079;28;20035;-80
2021/01/23 11:07:49;;;;;;;11.02;3.70;;;;;;;22.27;35.22;94162.84;4975149;28;20042;-75
2021/01/23 11:10:15;;;;;;;7.47;3.60;;;;;;;22.28;35.45;94169.75;4974070;28;20488;-84
2021/01/23 11:12:40;;;;;;;9.07;3.30;;;;;;;22.24;35.51;94163.16;4974043;28;20027;-75
2021/01/23 11:15:06;;;;;;;6.28;3.30;;;;;;;22.21;35.68;94159.50;4975414;28;20023;-85
2021/01/23 11:17:32;;;;;;;6.85;3.60;;;;;;;22.19;35.82;94126.59;4974630;28;20073;-79
2021/01/23 11:19:57;;;;;;;7.10;3.55;;;;;;;22.22;35.52;94139.19;4975519;28;20055;-84
2021/01/23 11:22:27;;;;;;;6.30;3.53;;;;;;;22.21;35.60;94143.19;4973144;28;20034;-83
2021/01/23 11:24:53;;;;;;;15.02;4.97;;;;;;;21.87;34.96;94162.53;4973905;28;20030;-76
2021/01/23 11:27:18;;;;;;;11.10;3.83;;;;;;;21.69;35.99;94106.28;4974146;28;20027;-78
2021/01/23 11:29:44;;;;;;;10.02;3.95;;;;;;;22.00;35.81;94139.56;4972691;28;20406;-77
2021/01/23 11:32:09;;;;;;;8.32;3.28;;;;;;;22.05;35.83;94130.59;4976102;28;20031;-77
2021/01/23 11:34:35;;;;;;;7.35;4.00;;;;;;;22.06;35.82;94126.63;4975019;28;20031;-82
2021/01/23 11:37:00;;;;;;;6.07;3.70;;;;;;;22.11;35.55;94131.22;4975123;28;20034;-84
2021/01/23 11:39:26;;;;;;;10.35;3.83;;;;;;;22.03;35.84;94110.59;4977322;28;20030;-88